createdAt,value
2022-08-21T00:01:58.608Z,4.63
2022-08-21T00:04:29.433Z,3.43
2022-08-21T00:06:59.842Z,2.87
2022-08-21T00:09:29.459Z,2.30
2022-08-21T00:11:58.745Z,2.97
2022-08-21T00:14:27.940Z,8.77
2022-08-21T00:17:01.360Z,3.73
2022-08-21T00:19:32.715Z,2.00
2022-08-21T00:22:02.040Z,1.83
2022-08-21T00:24:31.089Z,1.70
2022-08-21T00:27:00.548Z,1.90
2022-08-21T00:29:29.690Z,1.90
2022-08-21T00:31:59.497Z,2.20
2022-08-21T00:34:28.783Z,2.23
2022-08-21T00:36:59.321Z,2.53
2022-08-21T00:39:28.666Z,3.23
2022-08-21T00:41:57.896Z,4.23
2022-08-21T00:44:26.996Z,4.33
2022-08-21T00:46:56.191Z,3.10
2022-08-21T00:49:25.715Z,3.10
2022-08-21T00:52:01.040Z,2.10
2022-08-21T00:54:31.986Z,1.80
2022-08-21T00:57:05.792Z,2.00
2022-08-21T00:59:39.349Z,2.00
2022-08-21T01:02:11.296Z,2.00
2022-08-21T01:04:40.757Z,1.90
2022-08-21T01:07:11.914Z,1.77
2022-08-21T01:09:42.122Z,1.90
2022-08-21T01:12:12.437Z,2.00
2022-08-21T01:14:43.714Z,2.00
2022-08-21T01:17:14.845Z,1.60
2022-08-21T01:19:44.236Z,2.40
2022-08-21T01:22:14.977Z,2.07
2022-08-21T01:24:44.097Z,2.20
2022-08-21T01:27:13.190Z,2.10
2022-08-21T01:29:58.850Z,2.03
2022-08-21T01:32:28.043Z,2.33
2022-08-21T01:34:57.186Z,2.23
2022-08-21T01:37:27.882Z,2.10
2022-08-21T01:39:57.039Z,2.10
2022-08-21T01:42:26.299Z,2.33
2022-08-21T01:44:56.319Z,2.20
2022-08-21T01:47:25.539Z,2.27
2022-08-21T01:49:54.947Z,2.40
2022-08-21T01:52:24.314Z,2.40
2022-08-21T01:54:55.663Z,2.60
2022-08-21T01:57:26.164Z,3.30
2022-08-21T01:59:55.946Z,3.00
2022-08-21T02:02:24.982Z,3.20
2022-08-21T02:04:54.085Z,2.97
2022-08-21T02:07:23.231Z,2.57
2022-08-21T02:09:52.293Z,2.20
2022-08-21T02:12:24.037Z,2.63
2022-08-21T02:14:53.052Z,2.50
2022-08-21T02:17:22.608Z,2.53
2022-08-21T02:19:51.943Z,2.17
2022-08-21T02:22:21.053Z,2.30
2022-08-21T02:24:50.093Z,2.50
2022-08-21T02:27:27.003Z,2.67
2022-08-21T02:29:58.747Z,2.07
2022-08-21T02:32:28.483Z,2.63
2022-08-21T02:34:57.797Z,2.30
2022-08-21T02:37:26.899Z,2.50
2022-08-21T02:39:55.993Z,3.03
2022-08-21T02:42:26.591Z,2.67
2022-08-21T02:44:55.881Z,2.80
2022-08-21T02:47:24.928Z,3.20
2022-08-21T02:49:55.473Z,3.17
2022-08-21T02:52:25.309Z,3.50
2022-08-21T02:54:54.384Z,3.00
2022-08-21T02:57:24.795Z,3.20
2022-08-21T02:59:53.982Z,2.73
2022-08-21T03:02:23.148Z,2.47
2022-08-21T03:04:55.804Z,2.97
2022-08-21T03:07:24.890Z,2.70
2022-08-21T03:09:55.480Z,2.80
2022-08-21T03:12:27.881Z,2.70
2022-08-21T03:14:59.401Z,2.90
2022-08-21T03:17:29.961Z,2.40
2022-08-21T03:19:59.750Z,2.53
2022-08-21T03:22:30.738Z,3.83
2022-08-21T03:25:00.585Z,3.17
2022-08-21T03:27:31.874Z,3.37
2022-08-21T03:30:00.904Z,3.20
2022-08-21T03:32:31.270Z,2.63
2022-08-21T03:35:01.273Z,3.00
2022-08-21T03:37:30.525Z,2.90
2022-08-21T03:39:59.893Z,2.70
2022-08-21T03:42:30.364Z,2.90
2022-08-21T03:44:59.633Z,3.03
2022-08-21T03:47:28.951Z,3.20
2022-08-21T03:49:58.012Z,3.33
2022-08-21T03:52:27.108Z,3.20
2022-08-21T03:54:56.305Z,3.70
2022-08-21T03:57:25.562Z,2.93
2022-08-21T03:59:56.153Z,3.50
2022-08-21T04:02:25.241Z,3.03
2022-08-21T04:04:54.815Z,3.17
2022-08-21T04:07:23.895Z,3.50
2022-08-21T04:09:52.973Z,3.60
2022-08-21T04:12:22.882Z,3.03
2022-08-21T04:14:52.246Z,2.93
2022-08-21T04:17:22.666Z,2.70
2022-08-21T04:19:53.820Z,2.77
2022-08-21T04:22:23.277Z,3.00
2022-08-21T04:24:52.367Z,3.77
2022-08-21T04:27:21.465Z,3.03
2022-08-21T04:29:50.613Z,2.40
2022-08-21T04:32:25.622Z,3.10
2022-08-21T04:35:02.046Z,2.60
2022-08-21T04:37:31.078Z,2.80
2022-08-21T04:40:00.875Z,2.63
2022-08-21T04:42:30.607Z,2.93
2022-08-21T04:45:00.409Z,3.00
2022-08-21T04:47:41.650Z,3.07
2022-08-21T04:50:21.015Z,2.87
2022-08-21T04:53:07.131Z,2.73
2022-08-21T04:55:38.302Z,3.30
2022-08-21T04:58:08.778Z,3.30
2022-08-21T05:00:38.383Z,2.80
2022-08-21T05:03:11.403Z,3.03
2022-08-21T05:05:41.689Z,3.23
2022-08-21T05:08:14.473Z,4.07
2022-08-21T05:10:45.485Z,6.20
2022-08-21T05:13:15.545Z,5.27
2022-08-21T05:15:44.727Z,3.20
2022-08-21T05:18:15.530Z,3.07
2022-08-21T05:20:45.619Z,3.53
2022-08-21T05:23:16.310Z,3.57
2022-08-21T05:25:45.730Z,7.63
2022-08-21T05:28:15.245Z,10.13
2022-08-21T05:30:44.528Z,9.40
2022-08-21T05:33:15.085Z,7.90
2022-08-21T05:35:44.276Z,7.37
2022-08-21T05:38:16.834Z,8.70
2022-08-21T05:40:48.261Z,11.20
2022-08-21T05:43:18.727Z,11.70
2022-08-21T05:45:48.373Z,11.37
2022-08-21T05:48:21.483Z,9.47
2022-08-21T05:50:52.610Z,6.60
2022-08-21T05:53:23.691Z,4.80
2022-08-21T05:55:53.517Z,4.50
2022-08-21T05:58:24.625Z,6.17
2022-08-21T06:00:54.466Z,4.67
2022-08-21T06:03:27.095Z,4.03
2022-08-21T06:05:56.794Z,2.87
2022-08-21T06:08:26.267Z,1.90
2022-08-21T06:10:56.855Z,1.92
2022-08-21T06:13:26.554Z,2.17
2022-08-21T06:16:05.118Z,1.98
2022-08-21T06:18:36.163Z,2.03
2022-08-21T06:21:06.474Z,2.00
2022-08-21T06:23:36.395Z,1.48
2022-08-21T06:26:06.631Z,1.40
2022-08-21T06:28:37.864Z,1.50
2022-08-21T06:31:14.253Z,1.42
2022-08-21T06:33:45.075Z,1.65
2022-08-21T06:36:14.265Z,1.50
2022-08-21T06:38:51.301Z,1.48
2022-08-21T06:41:24.332Z,1.40
2022-08-21T06:43:56.745Z,1.48
2022-08-21T06:46:28.281Z,1.30
2022-08-21T06:48:59.774Z,1.30
2022-08-21T06:51:29.673Z,1.20
2022-08-21T06:53:59.403Z,1.55
2022-08-21T06:56:28.845Z,1.30
2022-08-21T06:58:58.265Z,1.55
2022-08-21T07:01:29.060Z,1.40
2022-08-21T07:03:59.936Z,1.00
2022-08-21T07:06:29.535Z,1.55
2022-08-21T07:09:03.701Z,1.50
2022-08-21T07:11:32.813Z,1.40
2022-08-21T07:14:11.496Z,1.17
2022-08-21T07:16:49.966Z,1.33
2022-08-21T07:19:21.327Z,0.90
2022-08-21T07:21:50.568Z,1.13
2022-08-21T07:24:19.608Z,1.00
2022-08-21T07:26:48.730Z,1.00
2022-08-21T07:29:18.534Z,0.95
2022-08-21T07:31:47.711Z,1.35
2022-08-21T07:34:16.899Z,0.93
2022-08-21T07:36:47.508Z,1.00
2022-08-21T07:39:18.758Z,1.02
2022-08-21T07:41:47.795Z,1.20
2022-08-21T07:44:16.937Z,1.30
2022-08-21T07:46:46.090Z,1.30
2022-08-21T07:49:15.095Z,1.17
2022-08-21T07:51:44.307Z,1.00
2022-08-21T07:54:17.311Z,1.20
2022-08-21T07:56:46.683Z,1.40
2022-08-21T07:59:15.770Z,1.20
2022-08-21T08:01:44.949Z,0.98
2022-08-21T08:04:15.934Z,1.20
2022-08-21T08:06:44.928Z,1.40
2022-08-21T08:09:16.148Z,0.80
2022-08-21T08:11:46.618Z,0.82
2022-08-21T08:14:16.546Z,1.02
2022-08-21T08:16:46.145Z,0.95
2022-08-21T08:19:15.162Z,1.00
2022-08-21T08:21:44.263Z,1.02
2022-08-21T08:24:18.807Z,1.23
2022-08-21T08:26:53.774Z,1.20
2022-08-21T08:29:23.618Z,0.90
2022-08-21T08:31:52.946Z,1.17
2022-08-21T08:34:25.763Z,1.52
2022-08-21T08:36:55.456Z,1.00
2022-08-21T08:39:29.629Z,1.15
2022-08-21T08:42:31.954Z,1.27
2022-08-21T08:45:01.377Z,1.20
2022-08-21T08:47:34.538Z,1.60
2022-08-21T08:50:08.135Z,1.02
2022-08-21T08:52:43.524Z,1.20
2022-08-21T08:55:17.864Z,1.35
2022-08-21T08:57:50.247Z,1.33
2022-08-21T09:00:22.083Z,1.10
2022-08-21T09:02:54.731Z,1.00
2022-08-21T09:05:26.943Z,0.90
2022-08-21T09:08:18.544Z,1.35
2022-08-21T09:10:59.819Z,1.10
2022-08-21T09:13:46.187Z,1.13
2022-08-21T09:16:24.511Z,1.10
2022-08-21T09:19:03.693Z,0.95
2022-08-21T09:21:44.355Z,0.98
2022-08-21T09:24:32.933Z,0.90
2022-08-21T09:27:08.769Z,1.25
2022-08-21T09:29:41.161Z,0.90
2022-08-21T09:32:18.719Z,0.95
2022-08-21T09:34:59.855Z,0.93
2022-08-21T09:37:31.021Z,1.00
2022-08-21T09:40:01.253Z,1.67
2022-08-21T09:42:33.949Z,1.17
2022-08-21T09:45:14.779Z,1.20
2022-08-21T09:47:46.561Z,1.23
2022-08-21T09:50:19.291Z,0.98
2022-08-21T09:52:52.835Z,1.30
2022-08-21T09:55:51.424Z,1.08
2022-08-21T09:58:23.096Z,1.20
2022-08-21T10:01:01.251Z,1.10
2022-08-21T10:03:30.894Z,1.13
2022-08-21T10:06:09.320Z,1.10
2022-08-21T10:08:41.409Z,1.10
2022-08-21T10:11:14.751Z,1.15
2022-08-21T10:14:02.056Z,1.10
2022-08-21T10:16:43.801Z,0.98
2022-08-21T10:19:25.670Z,1.02
2022-08-21T10:22:05.434Z,1.42
2022-08-21T10:24:42.786Z,1.27
2022-08-21T10:27:23.978Z,1.02
2022-08-21T10:30:05.164Z,1.10
2022-08-21T10:32:55.679Z,1.20
2022-08-21T10:35:32.436Z,1.27
2022-08-21T10:38:52.618Z,1.20
2022-08-21T10:41:35.170Z,1.10
2022-08-21T10:44:16.352Z,0.93
2022-08-21T10:46:56.817Z,1.52
2022-08-21T10:49:40.931Z,1.10
2022-08-21T10:52:30.053Z,1.13
2022-08-21T10:55:04.949Z,1.70
2022-08-21T10:57:43.116Z,1.08
2022-08-21T11:00:16.796Z,1.13
2022-08-21T11:02:55.192Z,1.00
2022-08-21T11:05:33.368Z,1.17
2022-08-21T11:08:08.910Z,1.02
2022-08-21T11:10:51.322Z,1.10
2022-08-21T11:13:34.947Z,1.08
2022-08-21T11:16:12.978Z,1.20
2022-08-21T11:18:51.972Z,1.15
2022-08-21T11:21:40.297Z,1.02
2022-08-21T11:24:27.478Z,0.90
2022-08-21T11:27:06.579Z,1.02
2022-08-21T11:29:40.508Z,1.20
2022-08-21T11:32:49.700Z,1.02
2022-08-21T11:35:33.396Z,1.27
2022-08-21T11:38:19.795Z,0.90
2022-08-21T11:41:08.584Z,0.98
2022-08-21T11:43:43.638Z,1.10
2022-08-21T11:46:35.148Z,0.80
2022-08-21T11:49:21.542Z,1.00
2022-08-21T11:52:01.896Z,0.93
2022-08-21T11:54:37.613Z,0.95
2022-08-21T11:57:15.631Z,1.02
2022-08-21T11:59:52.207Z,0.93
2022-08-21T12:02:26.791Z,1.00
2022-08-21T12:05:08.509Z,0.80
2022-08-21T12:07:44.665Z,0.85
2022-08-21T12:10:18.595Z,0.85
2022-08-21T12:12:48.044Z,0.80
2022-08-21T12:15:28.694Z,0.77
2022-08-21T12:18:01.709Z,1.27
2022-08-21T12:20:50.659Z,1.00
2022-08-21T12:23:28.719Z,1.05
2022-08-21T12:26:18.217Z,1.10
2022-08-21T12:28:48.387Z,0.98
2022-08-21T12:31:23.633Z,0.80
2022-08-21T12:33:57.870Z,1.02
2022-08-21T12:36:38.928Z,0.90
2022-08-21T12:39:15.918Z,1.10
2022-08-21T12:41:53.206Z,0.98
2022-08-21T12:44:30.552Z,0.80
2022-08-21T12:47:04.411Z,1.25
2022-08-21T12:49:37.770Z,0.65
2022-08-21T12:52:13.375Z,1.10
2022-08-21T12:54:46.155Z,0.70
2022-08-21T12:57:22.795Z,0.90
2022-08-21T12:59:56.835Z,0.70
2022-08-21T13:02:30.515Z,0.65
2022-08-21T13:05:01.263Z,0.80
2022-08-21T13:07:34.334Z,0.60
2022-08-21T13:10:10.508Z,0.65
2022-08-21T13:12:39.723Z,0.80
2022-08-21T13:15:12.097Z,0.77
2022-08-21T13:17:47.218Z,0.80
2022-08-21T13:20:24.482Z,0.68
2022-08-21T13:22:53.833Z,0.75
2022-08-21T13:25:28.851Z,0.73
2022-08-21T13:28:06.018Z,0.77
2022-08-21T13:30:35.941Z,0.63
2022-08-21T13:33:12.889Z,0.52
2022-08-21T13:35:51.850Z,0.63
2022-08-21T13:38:27.322Z,0.93
2022-08-21T13:41:01.211Z,0.73
2022-08-21T13:43:34.238Z,0.65
2022-08-21T13:46:09.720Z,0.68
2022-08-21T13:48:40.254Z,0.70
2022-08-21T13:51:10.156Z,0.70
2022-08-21T13:53:52.555Z,0.95
2022-08-21T13:56:28.245Z,0.68
2022-08-21T13:58:58.846Z,0.98
2022-08-21T14:01:30.678Z,2.30
2022-08-21T14:04:04.477Z,1.02
2022-08-21T14:06:38.004Z,0.68
2022-08-21T14:09:13.545Z,0.80
2022-08-21T14:11:44.059Z,0.70
2022-08-21T14:14:22.025Z,0.60
2022-08-21T14:16:57.514Z,1.27
2022-08-21T14:19:29.095Z,0.70
2022-08-21T14:21:58.535Z,0.45
2022-08-21T14:24:31.462Z,0.60
2022-08-21T14:27:08.579Z,0.90
2022-08-21T14:29:41.983Z,0.70
2022-08-21T14:32:21.870Z,0.65
2022-08-21T14:34:55.357Z,0.98
2022-08-21T14:37:28.517Z,0.65
2022-08-21T14:39:57.573Z,0.55
2022-08-21T14:42:28.368Z,0.80
2022-08-21T14:45:01.860Z,0.55
2022-08-21T14:47:30.928Z,0.60
2022-08-21T14:50:00.051Z,0.70
2022-08-21T14:52:29.140Z,0.90
2022-08-21T14:54:58.181Z,0.60
2022-08-21T14:57:31.823Z,0.50
2022-08-21T15:00:02.109Z,0.77
2022-08-21T15:02:31.412Z,0.60
2022-08-21T15:05:00.435Z,0.60
2022-08-21T15:07:29.516Z,0.50
2022-08-21T15:09:58.648Z,0.68
2022-08-21T15:12:29.642Z,0.70
2022-08-21T15:14:58.910Z,0.80
2022-08-21T15:17:28.704Z,0.70
2022-08-21T15:19:57.776Z,0.70
2022-08-21T15:22:27.883Z,1.02
2022-08-21T15:24:57.209Z,0.60
2022-08-21T15:27:26.291Z,0.40
2022-08-21T15:29:56.658Z,0.50
2022-08-21T15:32:29.209Z,0.70
2022-08-21T15:34:59.196Z,0.47
2022-08-21T15:37:28.745Z,0.80
2022-08-21T15:39:58.069Z,0.60
2022-08-21T15:42:28.488Z,0.57
2022-08-21T15:45:00.262Z,0.73
2022-08-21T15:47:32.649Z,0.68
2022-08-21T15:50:02.089Z,0.47
2022-08-21T15:52:31.183Z,0.80
2022-08-21T15:55:00.248Z,0.57
2022-08-21T15:57:29.767Z,0.77
2022-08-21T16:00:08.982Z,0.75
2022-08-21T16:02:44.191Z,0.73
2022-08-21T16:05:17.239Z,0.70
2022-08-21T16:07:47.239Z,0.90
2022-08-21T16:10:18.447Z,0.50
2022-08-21T16:12:50.707Z,0.50
2022-08-21T16:15:21.209Z,0.60
2022-08-21T16:17:52.837Z,0.55
2022-08-21T16:20:25.459Z,0.70
2022-08-21T16:22:55.931Z,0.68
2022-08-21T16:25:25.595Z,0.70
2022-08-21T16:27:59.592Z,0.90
2022-08-21T16:30:31.519Z,0.70
2022-08-21T16:33:03.322Z,0.55
2022-08-21T16:35:32.836Z,0.45
2022-08-21T16:38:02.387Z,0.65
2022-08-21T16:40:31.569Z,0.77
2022-08-21T16:43:00.945Z,1.00
2022-08-21T16:45:33.343Z,0.90
2022-08-21T16:48:04.438Z,0.75
2022-08-21T16:50:33.774Z,0.85
2022-08-21T16:53:02.987Z,0.93
2022-08-21T16:55:33.194Z,0.73
2022-08-21T16:58:10.669Z,0.70
2022-08-21T17:00:41.866Z,0.70
2022-08-21T17:03:16.129Z,0.63
2022-08-21T17:05:45.439Z,0.70
2022-08-21T17:08:15.220Z,0.82
2022-08-21T17:10:48.812Z,0.60
2022-08-21T17:13:19.076Z,1.23
2022-08-21T17:15:49.942Z,1.00
2022-08-21T17:18:21.572Z,1.05
2022-08-21T17:20:50.995Z,1.30
2022-08-21T17:23:21.540Z,0.93
2022-08-21T17:25:54.155Z,0.70
2022-08-21T17:28:27.655Z,1.20
2022-08-21T17:31:02.319Z,0.90
2022-08-21T17:33:45.762Z,0.90
2022-08-21T17:36:15.259Z,0.80
2022-08-21T17:38:44.731Z,0.75
2022-08-21T17:41:14.982Z,0.85
2022-08-21T17:43:44.844Z,0.90
2022-08-21T17:46:20.085Z,0.82
2022-08-21T17:48:50.044Z,0.90
2022-08-21T17:51:19.464Z,0.75
2022-08-21T17:53:48.756Z,1.20
2022-08-21T17:56:19.723Z,1.10
2022-08-21T17:58:51.529Z,1.30
2022-08-21T18:01:23.002Z,1.15
2022-08-21T18:03:52.317Z,1.15
2022-08-21T18:06:21.484Z,1.30
2022-08-21T18:08:50.836Z,1.35
2022-08-21T18:11:24.205Z,1.10
2022-08-21T18:13:55.121Z,1.35
2022-08-21T18:16:25.601Z,0.93
2022-08-21T18:18:55.963Z,1.10
2022-08-21T18:21:26.155Z,1.40
2022-08-21T18:23:55.936Z,0.95
2022-08-21T18:26:30.364Z,1.50
2022-08-21T18:29:01.722Z,1.13
2022-08-21T18:31:34.065Z,1.10
2022-08-21T18:34:07.517Z,1.27
2022-08-21T18:36:39.115Z,1.90
2022-08-21T18:39:34.864Z,1.25
2022-08-21T18:42:08.746Z,1.70
2022-08-21T18:44:42.366Z,1.40
2022-08-21T18:47:18.519Z,1.38
2022-08-21T18:49:47.747Z,1.55
2022-08-21T18:52:20.355Z,1.20
2022-08-21T18:54:50.247Z,1.48
2022-08-21T19:00:12.930Z,2.00
2022-08-21T19:02:44.315Z,1.35
2022-08-21T19:05:15.856Z,1.60
2022-08-21T19:07:47.688Z,1.25
2022-08-21T19:10:24.954Z,1.40
2022-08-21T19:13:00.658Z,1.27
2022-08-21T19:15:30.401Z,1.70
2022-08-21T19:18:01.067Z,1.70
2022-08-21T19:20:36.809Z,1.73
2022-08-21T19:23:12.772Z,1.65
2022-08-21T19:25:43.775Z,1.35
2022-08-21T19:28:16.972Z,1.70
2022-08-21T19:30:53.940Z,1.30
2022-08-21T19:33:33.670Z,1.50
2022-08-21T19:36:03.278Z,1.38
2022-08-21T19:38:32.846Z,1.40
2022-08-21T19:41:03.110Z,1.90
2022-08-21T19:43:35.190Z,1.55
2022-08-21T19:46:04.491Z,1.55
2022-08-21T19:48:36.645Z,1.80
2022-08-21T19:51:06.751Z,1.40
2022-08-21T19:53:36.138Z,1.90
2022-08-21T19:56:05.978Z,1.42
2022-08-21T19:58:37.880Z,1.60
2022-08-21T20:01:12.487Z,1.50
2022-08-21T20:04:01.010Z,1.60
2022-08-21T20:06:30.482Z,1.98
2022-08-21T20:09:01.063Z,1.50
2022-08-21T20:11:32.948Z,1.70
2022-08-21T20:14:07.802Z,1.80
2022-08-21T20:16:37.843Z,2.15
2022-08-21T20:19:12.765Z,1.50
2022-08-21T20:21:43.463Z,1.92
2022-08-21T20:24:14.856Z,2.08
2022-08-21T20:26:49.301Z,1.92
2022-08-21T20:29:25.924Z,1.58
2022-08-21T20:32:07.724Z,1.30
2022-08-21T20:34:38.553Z,1.52
2022-08-21T20:37:09.184Z,1.75
2022-08-21T20:39:38.879Z,1.85
2022-08-21T20:42:11.043Z,1.73
2022-08-21T20:44:46.532Z,2.05
2022-08-21T20:47:16.944Z,1.77
2022-08-21T20:49:53.604Z,1.90
2022-08-21T20:52:26.090Z,2.05
2022-08-21T20:55:02.060Z,1.30
2022-08-21T20:57:39.250Z,1.75
2022-08-21T21:03:07.994Z,2.10
2022-08-21T21:05:47.026Z,1.85
2022-08-21T21:08:22.703Z,1.80
2022-08-21T21:10:59.025Z,1.60
2022-08-21T21:13:31.509Z,1.95
2022-08-21T21:16:05.732Z,1.80
2022-08-21T21:18:40.772Z,2.13
2022-08-21T21:21:18.189Z,2.00
2022-08-21T21:23:51.820Z,2.20
2022-08-21T21:26:29.178Z,2.20
2022-08-21T21:29:04.306Z,2.42
2022-08-21T21:31:37.713Z,2.25
2022-08-21T21:34:06.760Z,2.30
2022-08-21T21:36:44.041Z,2.22
2022-08-21T21:39:36.513Z,2.57
2022-08-21T21:42:17.930Z,2.63
2022-08-21T21:45:13.618Z,2.65
2022-08-21T21:47:59.026Z,2.10
2022-08-21T21:50:42.645Z,2.37
2022-08-21T21:53:36.401Z,1.73
2022-08-21T21:56:20.224Z,1.92
2022-08-21T21:59:08.313Z,2.00
2022-08-21T22:01:47.267Z,2.58
2022-08-21T22:04:23.903Z,2.03
2022-08-21T22:07:08.927Z,2.17
2022-08-21T22:09:46.566Z,2.17
2022-08-21T22:12:42.208Z,2.40
2022-08-21T22:15:27.711Z,2.60
2022-08-21T22:18:03.718Z,1.80
2022-08-21T22:20:39.257Z,2.50
2022-08-21T22:23:16.008Z,2.10
2022-08-21T22:25:50.235Z,2.33
2022-08-21T22:28:25.748Z,1.80
2022-08-21T22:31:10.984Z,2.00
2022-08-21T22:33:41.006Z,2.08
2022-08-21T22:36:19.958Z,1.60
2022-08-21T22:41:43.018Z,1.98
2022-08-21T22:44:23.714Z,2.20
2022-08-21T22:46:59.719Z,1.90
2022-08-21T22:49:36.122Z,2.17
2022-08-21T22:52:12.389Z,2.10
2022-08-21T22:54:45.715Z,1.77
2022-08-21T22:57:27.816Z,1.80
2022-08-21T23:00:02.633Z,2.05
2022-08-21T23:02:38.698Z,2.33
2022-08-21T23:05:19.881Z,1.67
2022-08-21T23:07:50.782Z,1.90
2022-08-21T23:10:29.525Z,2.20
2022-08-21T23:13:09.034Z,1.98
2022-08-21T23:16:05.131Z,2.30
2022-08-21T23:18:48.646Z,2.17
2022-08-21T23:21:23.984Z,2.07
2022-08-21T23:24:07.430Z,2.43
2022-08-21T23:27:01.104Z,2.60
2022-08-21T23:29:44.683Z,3.50
2022-08-21T23:32:31.933Z,3.13
2022-08-21T23:35:15.701Z,3.47
2022-08-21T23:37:55.573Z,3.07
2022-08-21T23:40:50.656Z,2.87
2022-08-21T23:43:35.653Z,3.00
2022-08-21T23:49:44.303Z,2.20
2022-08-21T23:52:24.327Z,2.23
2022-08-21T23:55:24.740Z,2.47
2022-08-21T23:58:05.991Z,2.28
